Time;durP1;ratioP1;P1;durP2;ratioP2;P2;SDS_P1;SDS_P2;PMS_P1;PMS_P2;Temp;Humidity;BMP_temperature;BMP_pressure;BME280_temperature;BME280_humidity;BME280_pressure;Samples;Min_cycle;Max_cycle;Signal;HPM_P1;HPM_P2
2021/09/14 00:01:38;;;;;;;19.20;14.80;;;;;;;;;;5074107;28;20033;-82
2021/09/14 00:04:04;;;;;;;16.73;15.00;;;;;;;;;;5073872;28;20019;-82
2021/09/14 00:06:30;;;;;;;16.60;14.82;;;;;;;;;;5074069;28;20048;-82
2021/09/14 00:08:56;;;;;;;20.00;15.02;;;;;;;;;;5073889;28;20465;-82
2021/09/14 00:11:22;;;;;;;16.42;14.93;;;;;;;;;;5074183;28;20080;-82
2021/09/14 00:13:48;;;;;;;15.70;14.10;;;;;;;;;;5073610;28;20095;-81
2021/09/14 00:16:14;;;;;;;16.60;14.57;;;;;;;;;;5074243;28;20059;-82
2021/09/14 00:18:40;;;;;;;17.55;15.68;;;;;;;;;;5073784;28;20020;-82
2021/09/14 00:21:06;;;;;;;15.00;13.43;;;;;;;;;;5074102;28;20052;-82
2021/09/14 00:23:33;;;;;;;16.33;14.70;;;;;;;;;;5073448;28;20104;-81
2021/09/14 00:25:59;;;;;;;17.45;13.52;;;;;;;;;;5075167;28;20023;-82
2021/09/14 00:28:25;;;;;;;15.77;14.00;;;;;;;;;;5077501;28;20058;-82
2021/09/14 00:30:51;;;;;;;17.45;14.98;;;;;;;;;;5078015;28;20020;-81
2021/09/14 00:33:19;;;;;;;15.75;14.18;;;;;;;;;;5077448;28;20021;-82
2021/09/14 00:35:45;;;;;;;14.90;12.85;;;;;;;;;;5077402;28;20104;-82
2021/09/14 00:38:11;;;;;;;16.85;13.80;;;;;;;;;;5076769;28;20466;-81
2021/09/14 00:40:37;;;;;;;15.70;12.98;;;;;;;;;;5077329;28;20063;-82
2021/09/14 00:43:03;;;;;;;13.93;12.60;;;;;;;;;;5077726;28;20039;-82
2021/09/14 00:45:29;;;;;;;15.60;13.02;;;;;;;;;;5077297;28;20020;-82
2021/09/14 00:47:55;;;;;;;13.70;12.27;;;;;;;;;;5076945;28;20024;-81
2021/09/14 00:50:21;;;;;;;13.93;12.60;;;;;;;;;;5077084;28;20432;-82
2021/09/14 00:52:47;;;;;;;14.85;13.32;;;;;;;;;;5077155;28;20108;-81
2021/09/14 00:55:13;;;;;;;15.40;13.90;;;;;;;;;;5075451;28;20099;-79
2021/09/14 00:57:39;;;;;;;16.45;14.68;;;;;;;;;;5077805;28;20012;-81
2021/09/14 01:00:06;;;;;;;13.75;12.45;;;;;;;;;;5076376;28;20123;-80
2021/09/14 01:02:32;;;;;;;17.02;13.32;;;;;;;;;;5075256;28;20086;-80
2021/09/14 01:04:58;;;;;;;14.55;13.15;;;;;;;;;;5076831;28;20016;-81
2021/09/14 01:07:25;;;;;;;14.43;12.95;;;;;;;;;;5076655;28;20107;-80
2021/09/14 01:09:51;;;;;;;16.02;14.02;;;;;;;;;;5076922;28;20024;-80
2021/09/14 01:12:18;;;;;;;15.05;13.45;;;;;;;;;;5077260;28;20023;-81
2021/09/14 01:14:52;;;;;;;15.93;13.10;;;;;;;;;;5077027;28;20020;-81
2021/09/14 01:17:18;;;;;;;14.10;12.32;;;;;;;;;;5076977;28;20035;-81
2021/09/14 01:19:44;;;;;;;16.00;13.15;;;;;;;;;;5076643;28;20020;-81
2021/09/14 01:22:10;;;;;;;15.35;13.95;;;;;;;;;;5076386;28;20535;-81
2021/09/14 01:24:37;;;;;;;15.88;13.27;;;;;;;;;;5076660;28;20052;-81
2021/09/14 01:27:03;;;;;;;13.88;12.45;;;;;;;;;;5076501;28;20020;-81
2021/09/14 01:32:15;;;;;;;14.18;12.77;;;;;;;;;;5061642;28;20120;-81
2021/09/14 01:34:41;;;;;;;14.75;13.27;;;;;;;;;;5075926;28;20020;-81
2021/09/14 01:37:07;;;;;;;13.35;11.70;;;;;;;;;;5075199;28;20413;-81
2021/09/14 01:39:33;;;;;;;13.80;12.38;;;;;;;;;;5076435;28;20040;-81
2021/09/14 01:41:59;;;;;;;12.93;11.73;;;;;;;;;;5076087;28;20051;-81
2021/09/14 01:44:25;;;;;;;13.38;12.07;;;;;;;;;;5076324;28;20020;-81
2021/09/14 01:46:52;;;;;;;14.18;12.88;;;;;;;;;;5076158;28;20462;-81
2021/09/14 01:49:18;;;;;;;14.23;12.80;;;;;;;;;;5075740;28;20072;-81
2021/09/14 01:51:44;;;;;;;14.38;12.48;;;;;;;;;;5076023;28;20094;-81
2021/09/14 01:54:11;;;;;;;13.85;12.68;;;;;;;;;;5075498;28;20048;-81
2021/09/14 01:56:37;;;;;;;14.88;13.40;;;;;;;;;;5075861;28;20100;-82
2021/09/14 01:59:04;;;;;;;12.68;11.57;;;;;;;;;;5076123;28;20033;-81
2021/09/14 02:01:36;;;;;;;11.60;10.50;;;;;;;;;;5075719;28;20021;-81
2021/09/14 02:04:08;;;;;;;22.35;12.85;;;;;;;;;;5075283;28;20408;-81
2021/09/14 02:59:07;;;;;;;10.50;9.43;;;;;;;;;;5054413;28;20033;-81
2021/09/14 03:01:33;;;;;;;11.98;10.98;;;;;;;;;;5054856;28;20163;-81
2021/09/14 03:04:02;;;;;;;11.45;10.43;;;;;;;;;;5054461;28;20454;-80
2021/09/14 03:06:28;;;;;;;11.02;10.02;;;;;;;;;;5054310;28;20031;-81
2021/09/14 03:08:54;;;;;;;11.07;9.98;;;;;;;;;;5054249;28;20028;-80
2021/09/14 03:11:20;;;;;;;11.75;9.82;;;;;;;;;;5054576;28;20421;-81
2021/09/14 03:13:47;;;;;;;10.15;9.13;;;;;;;;;;5054597;28;20052;-81
2021/09/14 03:16:13;;;;;;;12.90;10.63;;;;;;;;;;5054321;28;20029;-81
2021/09/14 03:18:39;;;;;;;12.60;11.32;;;;;;;;;;5054220;28;20024;-81
2021/09/14 03:21:05;;;;;;;16.25;11.60;;;;;;;;;;5054600;28;20059;-81
2021/09/14 03:23:32;;;;;;;42.92;17.58;;;;;;;;;;5054007;28;20013;-80
2021/09/14 03:25:58;;;;;;;48.17;20.30;;;;;;;;;;5054256;28;20067;-81
2021/09/14 03:28:24;;;;;;;51.38;22.92;;;;;;;;;;5054308;28;20462;-81
2021/09/14 03:30:50;;;;;;;37.10;18.73;;;;;;;;;;5054597;28;20025;-81
2021/09/14 03:33:16;;;;;;;46.58;20.90;;;;;;;;;;5054541;28;20051;-81
2021/09/14 03:35:43;;;;;;;37.22;18.23;;;;;;;;;;5054324;28;20017;-81
2021/09/14 03:38:09;;;;;;;27.17;17.17;;;;;;;;;;5053855;28;20021;-81
2021/09/14 03:40:35;;;;;;;32.28;17.50;;;;;;;;;;5054233;28;20079;-81
2021/09/14 03:43:01;;;;;;;28.50;18.27;;;;;;;;;;5054176;28;20485;-81
2021/09/14 03:45:27;;;;;;;30.70;17.90;;;;;;;;;;5054006;28;20067;-81
2021/09/14 03:47:53;;;;;;;27.95;17.35;;;;;;;;;;5054095;28;20045;-81
2021/09/14 03:50:19;;;;;;;25.88;16.35;;;;;;;;;;5054193;28;20017;-81
2021/09/14 03:52:45;;;;;;;25.42;14.20;;;;;;;;;;5053695;28;20399;-80
2021/09/14 03:55:11;;;;;;;27.75;15.88;;;;;;;;;;5062373;28;20045;-81
2021/09/14 03:57:37;;;;;;;31.92;16.50;;;;;;;;;;5074296;28;20028;-81
2021/09/14 04:00:04;;;;;;;31.23;14.23;;;;;;;;;;5074104;28;20029;-81
2021/09/14 04:02:44;;;;;;;24.55;13.50;;;;;;;;;;5078020;28;20048;-81
2021/09/14 04:05:32;;;;;;;23.42;15.02;;;;;;;;;;5078029;28;20021;-81
2021/09/14 04:10:42;;;;;;;23.13;13.60;;;;;;;;;;5063532;28;20033;-84
2021/09/14 04:13:08;;;;;;;26.00;13.60;;;;;;;;;;5077788;28;20159;-83
2021/09/14 04:15:34;;;;;;;15.60;10.93;;;;;;;;;;5077519;28;20070;-83
2021/09/14 04:18:00;;;;;;;16.90;12.18;;;;;;;;;;5077807;28;20575;-82
2021/09/14 04:20:26;;;;;;;18.20;12.38;;;;;;;;;;5078280;28;20032;-83
2021/09/14 04:22:53;;;;;;;16.13;11.68;;;;;;;;;;5077956;28;20024;-83
2021/09/14 04:25:19;;;;;;;23.00;14.38;;;;;;;;;;5077772;28;20020;-82
2021/09/14 04:27:45;;;;;;;19.08;12.75;;;;;;;;;;5077598;28;20454;-84
2021/09/14 04:30:11;;;;;;;14.52;11.55;;;;;;;;;;5077372;28;20103;-82
2021/09/14 04:32:37;;;;;;;17.85;11.80;;;;;;;;;;5077531;28;20016;-83
2021/09/14 04:35:03;;;;;;;14.55;11.60;;;;;;;;;;5077243;28;20365;-82
2021/09/14 04:37:29;;;;;;;12.00;10.00;;;;;;;;;;5077460;28;20025;-83
2021/09/14 04:39:55;;;;;;;14.80;10.93;;;;;;;;;;5077046;28;20035;-81
2021/09/14 04:42:22;;;;;;;16.83;10.35;;;;;;;;;;5077624;28;20025;-81
2021/09/14 04:44:48;;;;;;;12.43;10.25;;;;;;;;;;5077249;28;20024;-82
2021/09/14 04:47:14;;;;;;;14.48;11.38;;;;;;;;;;5077254;28;20066;-82
2021/09/14 04:49:40;;;;;;;15.13;11.40;;;;;;;;;;5077351;28;20021;-83
2021/09/14 04:52:06;;;;;;;14.73;10.35;;;;;;;;;;5077097;28;20369;-83
2021/09/14 04:54:34;;;;;;;12.15;10.63;;;;;;;;;;5076706;28;20047;-82
2021/09/14 04:57:00;;;;;;;20.52;11.15;;;;;;;;;;5077386;28;20069;-80
2021/09/14 04:59:26;;;;;;;15.05;9.38;;;;;;;;;;5076073;28;20512;-82
2021/09/14 05:01:53;;;;;;;29.33;11.82;;;;;;;;;;5075355;28;20100;-82
2021/09/14 05:04:19;;;;;;;19.58;10.65;;;;;;;;;;5075469;28;20039;-80
2021/09/14 05:06:45;;;;;;;10.60;9.55;;;;;;;;;;5075678;28;20558;-81
2021/09/14 05:09:11;;;;;;;15.40;9.25;;;;;;;;;;5075579;28;20024;-79
2021/09/14 05:11:37;;;;;;;10.68;9.57;;;;;;;;;;5075187;28;20099;-78
2021/09/14 05:14:03;;;;;;;9.52;8.55;;;;;;;;;;5075229;28;20031;-79
2021/09/14 05:16:29;;;;;;;13.45;9.77;;;;;;;;;;5075006;28;20031;-80
2021/09/14 05:18:56;;;;;;;12.27;9.48;;;;;;;;;;5075077;28;20030;-80
2021/09/14 05:21:22;;;;;;;13.80;8.30;;;;;;;;;;5072836;28;20017;-83
2021/09/14 05:23:48;;;;;;;11.80;9.00;;;;;;;;;;5074244;28;20028;-85
2021/09/14 05:26:14;;;;;;;10.38;9.25;;;;;;;;;;5074980;28;20028;-79
2021/09/14 05:28:43;;;;;;;11.05;8.50;;;;;;;;;;5075666;28;20027;-82
2021/09/14 05:31:09;;;;;;;10.50;9.40;;;;;;;;;;5075153;28;20032;-88
2021/09/14 05:33:35;;;;;;;9.52;8.55;;;;;;;;;;5074852;28;20033;-82
2021/09/14 05:36:01;;;;;;;9.63;8.70;;;;;;;;;;5071755;28;20466;-81
2021/09/14 05:38:27;;;;;;;8.80;7.90;;;;;;;;;;5074665;28;20024;-79
2021/09/14 05:40:54;;;;;;;12.48;8.73;;;;;;;;;;5074695;28;20039;-82
2021/09/14 05:43:20;;;;;;;11.18;8.27;;;;;;;;;;5074268;28;20022;-83
2021/09/14 05:45:46;;;;;;;10.32;9.25;;;;;;;;;;5074810;28;20080;-82
2021/09/14 05:48:13;;;;;;;9.20;7.93;;;;;;;;;;5074692;28;20024;-81
2021/09/14 05:50:39;;;;;;;9.68;8.52;;;;;;;;;;5074364;28;20470;-79
2021/09/14 05:53:05;;;;;;;10.10;8.25;;;;;;;;;;5074666;28;20024;-79
2021/09/14 05:55:31;;;;;;;9.85;8.85;;;;;;;;;;5074390;28;20051;-79
2021/09/14 05:57:57;;;;;;;10.25;8.60;;;;;;;;;;5073784;28;20051;-79
2021/09/14 06:00:23;;;;;;;11.50;7.97;;;;;;;;;;5074023;28;20045;-77
2021/09/14 06:02:49;;;;;;;24.27;8.55;;;;;;;;;;5074919;28;20489;-80
2021/09/14 06:05:15;;;;;;;8.63;7.60;;;;;;;;;;5075502;28;20032;-80
2021/09/14 06:07:42;;;;;;;10.05;8.65;;;;;;;;;;5074296;28;20031;-80
2021/09/14 06:10:08;;;;;;;8.75;7.53;;;;;;;;;;5074955;28;20024;-83
2021/09/14 06:12:34;;;;;;;9.93;8.05;;;;;;;;;;5073907;28;20029;-82
2021/09/14 06:15:00;;;;;;;7.72;6.93;;;;;;;;;;5074997;28;20093;-81
2021/09/14 06:17:26;;;;;;;7.50;6.25;;;;;;;;;;5074204;28;20527;-80
2021/09/14 06:19:52;;;;;;;8.70;7.90;;;;;;;;;;5073581;28;20033;-81
2021/09/14 06:22:20;;;;;;;9.27;8.32;;;;;;;;;;5074399;28;20029;-78
2021/09/14 06:24:46;;;;;;;13.27;7.50;;;;;;;;;;5074542;28;20036;-79
2021/09/14 06:27:13;;;;;;;23.83;8.20;;;;;;;;;;5075265;28;20028;-79
2021/09/14 06:29:39;;;;;;;16.13;9.30;;;;;;;;;;5074846;28;20055;-79
2021/09/14 06:32:07;;;;;;;7.43;6.70;;;;;;;;;;5071792;28;20028;-80
2021/09/14 06:34:33;;;;;;;9.20;6.70;;;;;;;;;;5075232;28;20016;-80
2021/09/14 06:36:59;;;;;;;8.68;7.28;;;;;;;;;;5077214;28;20020;-83
2021/09/14 06:39:25;;;;;;;8.48;7.10;;;;;;;;;;5076693;28;20029;-81
2021/09/14 06:41:51;;;;;;;8.68;7.88;;;;;;;;;;5070149;28;20028;-83
2021/09/14 06:44:18;;;;;;;9.60;7.88;;;;;;;;;;5076367;28;20031;-79
2021/09/14 06:46:44;;;;;;;15.43;7.97;;;;;;;;;;5076559;28;20044;-79
2021/09/14 06:49:10;;;;;;;8.20;6.97;;;;;;;;;;5077132;28;20034;-81
2021/09/14 06:51:36;;;;;;;8.45;7.65;;;;;;;;;;5076839;28;20035;-92
2021/09/14 06:54:02;;;;;;;8.13;6.55;;;;;;;;;;5076522;28;20094;-82
2021/09/14 06:56:28;;;;;;;8.45;7.15;;;;;;;;;;5075571;28;20105;-82
2021/09/14 06:58:55;;;;;;;8.98;8.10;;;;;;;;;;5079061;28;20020;-86
2021/09/14 07:01:22;;;;;;;8.32;7.43;;;;;;;;;;5077662;28;20028;-88
2021/09/14 07:03:48;;;;;;;11.48;9.32;;;;;;;;;;5076896;28;20073;-83
2021/09/14 07:06:14;;;;;;;12.35;8.13;;;;;;;;;;5076953;28;20024;-84
2021/09/14 07:08:40;;;;;;;9.43;8.38;;;;;;;;;;5077098;28;20016;-83
2021/09/14 07:11:06;;;;;;;9.55;8.43;;;;;;;;;;5077336;28;20023;-86
2021/09/14 07:13:33;;;;;;;9.68;8.13;;;;;;;;;;5076664;28;20036;-83
2021/09/14 07:15:59;;;;;;;11.18;8.07;;;;;;;;;;5076558;28;20031;-86
2021/09/14 07:18:25;;;;;;;11.65;8.65;;;;;;;;;;5077366;28;20509;-87
2021/09/14 07:20:51;;;;;;;9.13;7.90;;;;;;;;;;5077017;28;20060;-79
2021/09/14 07:23:21;;;;;;;10.90;8.70;;;;;;;;;;5076428;28;20016;-92
2021/09/14 07:25:47;;;;;;;11.10;8.50;;;;;;;;;;5076154;28;20040;-89
2021/09/14 07:28:13;;;;;;;9.13;7.13;;;;;;;;;;5076530;28;20012;-81
2021/09/14 07:30:39;;;;;;;8.57;7.80;;;;;;;;;;5075506;28;20189;-83
2021/09/14 07:33:05;;;;;;;9.60;8.60;;;;;;;;;;5076160;28;20021;-80
2021/09/14 07:35:31;;;;;;;9.05;7.40;;;;;;;;;;5076360;28;20016;-84
2021/09/14 07:37:57;;;;;;;9.18;8.00;;;;;;;;;;5075736;28;20024;-79
2021/09/14 07:40:24;;;;;;;10.07;9.07;;;;;;;;;;5075466;28;20032;-80
2021/09/14 07:42:50;;;;;;;14.02;9.20;;;;;;;;;;5075962;28;20056;-80
2021/09/14 07:45:16;;;;;;;10.02;8.82;;;;;;;;;;5076949;28;20036;-85
2021/09/14 07:47:42;;;;;;;10.35;8.38;;;;;;;;;;5072355;28;20090;-82
2021/09/14 07:50:08;;;;;;;12.35;9.63;;;;;;;;;;5070963;28;20032;-86
2021/09/14 07:52:34;;;;;;;13.45;11.57;;;;;;;;;;5071272;28;20082;-89
2021/09/14 07:55:01;;;;;;;19.67;12.60;;;;;;;;;;5072262;28;20513;-80
2021/09/14 07:57:28;;;;;;;28.05;17.48;;;;;;;;;;5072785;28;20546;-83
2021/09/14 07:59:56;;;;;;;22.35;18.63;;;;;;;;;;5072551;28;20036;-80
2021/09/14 08:02:22;;;;;;;25.90;19.38;;;;;;;;;;5071868;28;20035;-83
2021/09/14 08:04:48;;;;;;;25.67;22.63;;;;;;;;;;5072849;28;20458;-78
2021/09/14 08:07:14;;;;;;;26.27;23.42;;;;;;;;;;5072632;28;20020;-80
2021/09/14 08:09:40;;;;;;;43.17;38.47;;;;;;;;;;5072548;28;20501;-82
2021/09/14 08:12:07;;;;;;;44.00;37.85;;;;;;;;;;5072028;28;20020;-82
2021/09/14 08:14:33;;;;;;;54.75;46.53;;;;;;;;;;5071486;28;20024;-84
2021/09/14 08:16:59;;;;;;;59.42;50.22;;;;;;;;;;5072084;28;20078;-83
2021/09/14 08:19:25;;;;;;;58.17;43.55;;;;;;;;;;5072215;28;20468;-79
2021/09/14 08:21:51;;;;;;;47.53;41.13;;;;;;;;;;5071214;28;20107;-81
2021/09/14 08:24:17;;;;;;;47.10;34.35;;;;;;;;;;5072506;28;20028;-78
2021/09/14 08:26:43;;;;;;;56.55;49.70;;;;;;;;;;5071836;28;20366;-82
2021/09/14 08:29:09;;;;;;;66.22;59.30;;;;;;;;;;5071339;28;20539;-83
2021/09/14 08:31:36;;;;;;;64.45;57.00;;;;;;;;;;5072605;28;20033;-88
2021/09/14 08:34:02;;;;;;;69.15;61.13;;;;;;;;;;5072054;28;20058;-90
2021/09/14 08:36:28;;;;;;;67.10;59.85;;;;;;;;;;5071621;28;20021;-87
2021/09/14 08:38:55;;;;;;;61.45;55.20;;;;;;;;;;5071628;28;20025;-86
2021/09/14 08:41:21;;;;;;;60.05;51.58;;;;;;;;;;5072251;28;20028;-86
2021/09/14 08:43:49;;;;;;;59.60;52.95;;;;;;;;;;5071547;28;20044;-79
2021/09/14 08:46:17;;;;;;;59.25;53.10;;;;;;;;;;5072480;28;20024;-82
2021/09/14 08:48:43;;;;;;;56.85;50.63;;;;;;;;;;5075664;28;20044;-84
2021/09/14 08:51:09;;;;;;;54.00;48.33;;;;;;;;;;5075103;28;20028;-84
2021/09/14 08:53:36;;;;;;;62.97;56.33;;;;;;;;;;5075992;28;20019;-80
2021/09/14 08:56:02;;;;;;;56.03;50.03;;;;;;;;;;5075321;28;20409;-81
2021/09/14 08:58:28;;;;;;;61.63;55.22;;;;;;;;;;5075756;28;20044;-85
2021/09/14 09:00:54;;;;;;;57.60;50.67;;;;;;;;;;5074982;28;20549;-89
2021/09/14 09:03:22;;;;;;;53.95;47.78;;;;;;;;;;5075175;28;20016;-81
2021/09/14 09:05:48;;;;;;;53.42;47.63;;;;;;;;;;5075417;28;20039;-78
2021/09/14 09:08:18;;;;;;;53.70;48.17;;;;;;;;;;5076060;28;20116;-81
2021/09/14 09:10:45;;;;;;;56.80;48.53;;;;;;;;;;5075252;28;20028;-80
2021/09/14 09:13:11;;;;;;;55.45;49.40;;;;;;;;;;5075092;28;20024;-83
2021/09/14 09:15:37;;;;;;;52.92;47.22;;;;;;;;;;5074704;28;20048;-86
2021/09/14 09:18:07;;;;;;;53.22;47.55;;;;;;;;;;5074880;28;20028;-81
2021/09/14 09:20:34;;;;;;;47.90;42.75;;;;;;;;;;5074959;28;20063;-86
2021/09/14 09:23:00;;;;;;;53.97;48.28;;;;;;;;;;5074562;28;20024;-81
2021/09/14 09:25:26;;;;;;;50.97;45.40;;;;;;;;;;5071915;28;20036;-81
2021/09/14 09:28:10;;;;;;;47.95;43.03;;;;;;;;;;5075397;28;20032;-79
2021/09/14 09:30:37;;;;;;;47.83;42.88;;;;;;;;;;5074947;28;20028;-79
2021/09/14 09:33:03;;;;;;;51.70;46.08;;;;;;;;;;5074528;28;20017;-78
2021/09/14 09:35:31;;;;;;;50.80;45.47;;;;;;;;;;5073959;28;20028;-81
2021/09/14 09:37:57;;;;;;;47.38;42.72;;;;;;;;;;5074291;28;20048;-80
2021/09/14 09:40:24;;;;;;;46.17;41.13;;;;;;;;;;5074831;28;20389;-79
2021/09/14 09:42:50;;;;;;;37.83;33.88;;;;;;;;;;5074463;28;20381;-80
2021/09/14 09:45:17;;;;;;;44.50;36.40;;;;;;;;;;5074331;28;20043;-86
2021/09/14 09:47:43;;;;;;;40.25;36.00;;;;;;;;;;5074291;28;20024;-79
2021/09/14 09:50:10;;;;;;;41.95;37.63;;;;;;;;;;5073514;28;20056;-81
2021/09/14 09:52:36;;;;;;;41.88;37.78;;;;;;;;;;5074400;28;20020;-81
2021/09/14 09:55:02;;;;;;;43.33;37.75;;;;;;;;;;5073898;28;20040;-79
2021/09/14 09:57:29;;;;;;;55.25;40.67;;;;;;;;;;5073590;28;20028;-80
2021/09/14 09:59:55;;;;;;;39.53;35.28;;;;;;;;;;5073753;28;20103;-80
2021/09/14 10:02:26;;;;;;;46.05;36.05;;;;;;;;;;5074950;28;20052;-78
2021/09/14 10:05:00;;;;;;;38.00;34.13;;;;;;;;;;5071846;28;20441;-79
2021/09/14 10:07:27;;;;;;;33.88;30.42;;;;;;;;;;5073802;28;20024;-76
2021/09/14 10:09:54;;;;;;;35.00;31.23;;;;;;;;;;5075606;28;20465;-80
2021/09/14 10:12:24;;;;;;;35.65;32.13;;;;;;;;;;5075850;28;20048;-79
2021/09/14 10:14:58;;;;;;;35.80;32.05;;;;;;;;;;5075631;28;20029;-78
2021/09/14 10:17:26;;;;;;;38.03;33.85;;;;;;;;;;5075148;28;20028;-78
2021/09/14 10:19:52;;;;;;;37.22;33.50;;;;;;;;;;5074876;28;20041;-79
2021/09/14 10:22:26;;;;;;;33.95;30.70;;;;;;;;;;5075528;28;20111;-78
2021/09/14 10:24:53;;;;;;;33.33;30.05;;;;;;;;;;5075562;28;20108;-77
2021/09/14 10:27:19;;;;;;;35.85;29.15;;;;;;;;;;5075139;28;20107;-78
2021/09/14 10:29:45;;;;;;;33.22;29.80;;;;;;;;;;5074900;28;20486;-77
2021/09/14 10:32:12;;;;;;;34.63;31.13;;;;;;;;;;5074432;28;20025;-78
2021/09/14 10:34:42;;;;;;;37.17;33.28;;;;;;;;;;5071568;28;20083;-77
2021/09/14 10:37:08;;;;;;;29.92;26.85;;;;;;;;;;5074955;28;20052;-78
2021/09/14 10:39:35;;;;;;;30.30;27.20;;;;;;;;;;5075463;28;20036;-82
2021/09/14 10:42:11;;;;;;;32.25;27.85;;;;;;;;;;5074234;28;20082;-81
2021/09/14 10:44:37;;;;;;;32.60;29.27;;;;;;;;;;5075317;28;20024;-80
2021/09/14 10:47:19;;;;;;;28.83;25.27;;;;;;;;;;5074129;28;20020;-83
2021/09/14 10:49:45;;;;;;;;;;;;;;;;;;5075930;28;20025;-85
2021/09/14 10:52:11;;;;;;;26.42;23.90;;;;;;;;;;5074957;28;20413;-87
2021/09/14 10:54:53;;;;;;;23.17;20.70;;;;;;;;;;5074734;28;20051;-79
2021/09/14 10:57:22;;;;;;;19.42;17.45;;;;;;;;;;5074674;28;20023;-81
2021/09/14 10:59:50;;;;;;;19.70;17.83;;;;;;;;;;5074404;28;20040;-80
2021/09/14 11:02:16;;;;;;;18.77;16.98;;;;;;;;;;5071485;28;20043;-92
2021/09/14 11:04:43;;;;;;;16.33;14.93;;;;;;;;;;5073988;28;20081;-82
2021/09/14 11:07:11;;;;;;;19.20;16.45;;;;;;;;;;5073332;28;20074;-82
2021/09/14 11:09:37;;;;;;;29.05;19.63;;;;;;;;;;5073365;28;20405;-81
2021/09/14 11:12:03;;;;;;;15.40;14.00;;;;;;;;;;5073859;28;20082;-82
2021/09/14 11:14:36;;;;;;;17.48;15.60;;;;;;;;;;5074001;28;20409;-81
2021/09/14 11:17:02;;;;;;;17.23;13.05;;;;;;;;;;5073247;28;20043;-81
2021/09/14 11:19:29;;;;;;;13.85;12.45;;;;;;;;;;5072981;28;20039;-82
2021/09/14 11:21:55;;;;;;;15.65;14.10;;;;;;;;;;5074136;28;20032;-81
2021/09/14 11:24:21;;;;;;;15.88;13.80;;;;;;;;;;5073827;28;20107;-81
2021/09/14 11:26:47;;;;;;;13.25;12.00;;;;;;;;;;5073851;28;20527;-81
2021/09/14 11:29:13;;;;;;;12.75;11.48;;;;;;;;;;5074164;28;20032;-81
2021/09/14 11:31:40;;;;;;;12.68;11.48;;;;;;;;;;5073777;28;20046;-82
2021/09/14 11:34:06;;;;;;;10.55;9.55;;;;;;;;;;5070225;28;20027;-81
2021/09/14 11:36:32;;;;;;;9.75;8.85;;;;;;;;;;5074055;28;20032;-83
2021/09/14 11:38:59;;;;;;;14.55;11.52;;;;;;;;;;5073961;28;20025;-82
2021/09/14 11:41:30;;;;;;;11.50;10.38;;;;;;;;;;5073895;28;20037;-82
2021/09/14 11:43:56;;;;;;;10.13;9.10;;;;;;;;;;5073778;28;20035;-82
2021/09/14 11:46:23;;;;;;;11.20;9.50;;;;;;;;;;5074363;28;20036;-82
2021/09/14 11:48:54;;;;;;;12.63;11.38;;;;;;;;;;5073718;28;20029;-82
2021/09/14 11:51:20;;;;;;;13.50;12.30;;;;;;;;;;5073916;28;20356;-83
2021/09/14 11:53:47;;;;;;;11.40;10.35;;;;;;;;;;5073658;28;20040;-81
2021/09/14 11:56:13;;;;;;;11.10;10.02;;;;;;;;;;5072860;28;20490;-83
2021/09/14 11:58:41;;;;;;;9.35;8.45;;;;;;;;;;5073668;28;20060;-82
2021/09/14 12:01:09;;;;;;;9.32;8.43;;;;;;;;;;5073774;28;20405;-82
2021/09/14 12:03:37;;;;;;;8.93;8.05;;;;;;;;;;5070644;28;20066;-84
2021/09/14 12:06:03;;;;;;;8.73;7.97;;;;;;;;;;5073038;28;20457;-84
2021/09/14 12:08:31;;;;;;;9.20;8.27;;;;;;;;;;5073633;28;20028;-84
2021/09/14 12:10:57;;;;;;;8.82;8.02;;;;;;;;;;5073983;28;20029;-84
2021/09/14 12:13:23;;;;;;;11.18;10.00;;;;;;;;;;5074301;28;20382;-84
2021/09/14 12:15:57;;;;;;;7.93;7.22;;;;;;;;;;5073195;28;20024;-85
2021/09/14 12:18:24;;;;;;;8.55;7.75;;;;;;;;;;5074035;28;20469;-85
2021/09/14 12:20:50;;;;;;;10.13;9.13;;;;;;;;;;5073600;28;20389;-84
2021/09/14 12:23:17;;;;;;;8.68;7.38;;;;;;;;;;5076696;28;20078;-85
2021/09/14 12:25:43;;;;;;;10.23;7.75;;;;;;;;;;5077105;28;20027;-85
2021/09/14 12:28:10;;;;;;;8.63;7.82;;;;;;;;;;5077724;28;20027;-88
2021/09/14 12:30:37;;;;;;;9.70;8.88;;;;;;;;;;5077218;28;20090;-90
2021/09/14 12:33:03;;;;;;;9.15;8.35;;;;;;;;;;5077302;28;20020;-92
2021/09/14 12:35:29;;;;;;;7.60;7.00;;;;;;;;;;5077052;28;20025;-89
2021/09/14 12:37:55;;;;;;;9.63;8.73;;;;;;;;;;5077535;28;20103;-89
2021/09/14 12:40:22;;;;;;;7.43;6.78;;;;;;;;;;5077431;28;20047;-86
2021/09/14 12:42:48;;;;;;;8.60;7.88;;;;;;;;;;5077511;28;20474;-80
2021/09/14 12:45:14;;;;;;;9.40;8.50;;;;;;;;;;5076451;28;20485;-80
2021/09/14 12:47:40;;;;;;;8.68;7.90;;;;;;;;;;5076856;28;20028;-78
2021/09/14 12:50:07;;;;;;;7.07;6.47;;;;;;;;;;5076866;28;20036;-80
2021/09/14 12:52:33;;;;;;;6.85;6.07;;;;;;;;;;5077134;28;20025;-79
2021/09/14 12:54:59;;;;;;;6.78;6.25;;;;;;;;;;5076681;28;20056;-79
2021/09/14 12:57:25;;;;;;;6.70;6.20;;;;;;;;;;5077469;28;20177;-79
2021/09/14 12:59:51;;;;;;;8.05;7.25;;;;;;;;;;5076969;28;20021;-80
2021/09/14 13:02:18;;;;;;;7.15;6.20;;;;;;;;;;5077079;28;20458;-81
2021/09/14 13:04:44;;;;;;;8.07;7.38;;;;;;;;;;5076310;28;20017;-80
2021/09/14 13:07:10;;;;;;;9.27;7.50;;;;;;;;;;5077270;28;20029;-80
2021/09/14 13:09:36;;;;;;;10.85;6.82;;;;;;;;;;5076471;28;20040;-79
2021/09/14 13:12:02;;;;;;;8.05;7.35;;;;;;;;;;5076844;28;20053;-81
2021/09/14 13:17:14;;;;;;;8.18;6.75;;;;;;;;;;5061389;28;20059;-85
2021/09/14 13:19:40;;;;;;;6.10;5.60;;;;;;;;;;5076555;28;20474;-82
2021/09/14 13:22:09;;;;;;;7.82;6.75;;;;;;;;;;5076385;28;20031;-84
2021/09/14 13:25:04;;;;;;;5.75;5.25;;;;;;;;;;5078696;28;20029;-83
2021/09/14 13:27:31;;;;;;;7.78;6.93;;;;;;;;;;5072372;28;20079;-84
2021/09/14 13:29:57;;;;;;;9.43;8.30;;;;;;;;;;5076049;28;20383;-84
2021/09/14 13:32:23;;;;;;;7.70;6.85;;;;;;;;;;5076323;28;20020;-84
2021/09/14 13:34:49;;;;;;;7.05;6.45;;;;;;;;;;5076515;28;20020;-84
2021/09/14 13:37:15;;;;;;;6.85;6.25;;;;;;;;;;5076771;28;20027;-86
2021/09/14 13:39:41;;;;;;;6.03;5.53;;;;;;;;;;5076143;28;20025;-89
2021/09/14 13:42:11;;;;;;;6.90;5.93;;;;;;;;;;5075782;28;20043;-87
2021/09/14 13:47:24;;;;;;;7.90;7.20;;;;;;;;;;5061822;28;20553;-87
2021/09/14 13:49:50;;;;;;;9.20;7.10;;;;;;;;;;5076206;28;20091;-88
2021/09/14 13:52:17;;;;;;;8.35;7.60;;;;;;;;;;5076157;28;20051;-84
2021/09/14 13:54:44;;;;;;;7.78;6.70;;;;;;;;;;5075426;28;20048;-85
2021/09/14 13:57:10;;;;;;;7.80;7.10;;;;;;;;;;5076287;28;20030;-85
2021/09/14 13:59:36;;;;;;;9.85;6.55;;;;;;;;;;5074284;28;20473;-82
2021/09/14 14:02:02;;;;;;;9.15;7.28;;;;;;;;;;5076555;28;20024;-92
2021/09/14 14:04:28;;;;;;;9.32;6.55;;;;;;;;;;5080650;28;20036;-82
2021/09/14 14:06:54;;;;;;;7.25;6.53;;;;;;;;;;5078849;28;20028;-85
2021/09/14 14:09:20;;;;;;;7.57;6.57;;;;;;;;;;5077928;28;20560;-86
2021/09/14 14:11:47;;;;;;;7.20;6.50;;;;;;;;;;5078382;28;20066;-88
2021/09/14 14:14:13;;;;;;;7.75;7.05;;;;;;;;;;5077056;28;20013;-84
2021/09/14 14:16:40;;;;;;;8.30;7.05;;;;;;;;;;5078326;28;20522;-88
2021/09/14 14:19:07;;;;;;;12.32;6.55;;;;;;;;;;5078249;28;20021;-89
2021/09/14 14:21:33;;;;;;;10.77;5.80;;;;;;;;;;5076951;28;20128;-90
2021/09/14 14:24:00;;;;;;;7.05;6.20;;;;;;;;;;5077018;28;20107;-80
2021/09/14 14:26:26;;;;;;;7.05;6.13;;;;;;;;;;5077393;28;20036;-78
2021/09/14 14:28:52;;;;;;;6.57;5.55;;;;;;;;;;5077001;28;20021;-81
2021/09/14 14:31:18;;;;;;;6.32;5.75;;;;;;;;;;5078113;28;20377;-79
2021/09/14 14:33:46;;;;;;;6.15;5.55;;;;;;;;;;5077373;28;20024;-77
2021/09/14 14:36:12;;;;;;;9.45;6.60;;;;;;;;;;5075294;28;20024;-77
2021/09/14 14:38:41;;;;;;;8.15;7.00;;;;;;;;;;5076458;28;20029;-79
2021/09/14 14:41:08;;;;;;;6.97;5.57;;;;;;;;;;5075559;28;20040;-77
2021/09/14 14:43:34;;;;;;;9.50;8.55;;;;;;;;;;5073585;28;20016;-80
2021/09/14 14:46:00;;;;;;;7.47;6.10;;;;;;;;;;5072066;28;20490;-78
2021/09/14 14:48:26;;;;;;;8.98;8.02;;;;;;;;;;5072747;28;20047;-78
2021/09/14 14:50:52;;;;;;;8.75;7.85;;;;;;;;;;5073043;28;20025;-78
2021/09/14 14:53:18;;;;;;;11.00;8.75;;;;;;;;;;5072066;28;20017;-79
2021/09/14 14:55:44;;;;;;;9.32;8.07;;;;;;;;;;5072195;28;20048;-77
2021/09/14 14:58:10;;;;;;;9.68;8.77;;;;;;;;;;5072877;28;20029;-78
2021/09/14 15:00:39;;;;;;;13.93;7.97;;;;;;;;;;5072521;28;20494;-80
2021/09/14 15:03:05;;;;;;;9.88;9.00;;;;;;;;;;5072477;28;20020;-80
2021/09/14 15:05:31;;;;;;;9.48;8.48;;;;;;;;;;5072966;28;20405;-79
2021/09/14 15:07:57;;;;;;;14.10;8.93;;;;;;;;;;5072874;28;20033;-83
2021/09/14 15:10:24;;;;;;;12.60;8.50;;;;;;;;;;5074372;28;20051;-81
2021/09/14 15:12:51;;;;;;;7.72;7.05;;;;;;;;;;5073879;28;20421;-80
2021/09/14 15:15:17;;;;;;;8.95;7.88;;;;;;;;;;5073523;28;20441;-80
2021/09/14 15:17:44;;;;;;;9.73;8.75;;;;;;;;;;5074556;28;20070;-80
2021/09/14 15:20:10;;;;;;;8.05;7.35;;;;;;;;;;5073403;28;20054;-79
2021/09/14 15:22:37;;;;;;;8.25;7.45;;;;;;;;;;5074944;28;20217;-91
2021/09/14 15:25:03;;;;;;;8.63;7.32;;;;;;;;;;5077329;28;20021;-89
2021/09/14 15:27:29;;;;;;;11.43;7.35;;;;;;;;;;5076617;28;20036;-86